createdAt,value
2023-01-03T00:02:06.308Z,100.00
2023-01-03T00:04:33.060Z,100.00
2023-01-03T00:06:59.708Z,100.00
2023-01-03T00:09:26.645Z,100.00
2023-01-03T00:12:12.973Z,100.00
2023-01-03T00:14:42.519Z,100.00
2023-01-03T00:17:10.277Z,100.00
2023-01-03T00:19:40.570Z,100.00
2023-01-03T00:22:07.613Z,100.00
2023-01-03T00:24:34.233Z,100.00
2023-01-03T00:27:00.927Z,100.00
2023-01-03T00:29:27.735Z,100.00
2023-01-03T00:31:54.627Z,100.00
2023-01-03T00:34:21.408Z,100.00
2023-01-03T00:36:48.333Z,100.00
2023-01-03T00:39:15.129Z,100.00
2023-01-03T00:41:42.488Z,100.00
2023-01-03T00:44:09.177Z,100.00
2023-01-03T00:46:35.987Z,100.00
2023-01-03T00:49:03.880Z,100.00
2023-01-03T00:51:33.073Z,100.00
2023-01-03T00:54:01.510Z,100.00
2023-01-03T00:56:33.236Z,100.00
2023-01-03T00:59:00.382Z,100.00
2023-01-03T01:01:33.869Z,100.00
2023-01-03T01:04:11.889Z,100.00
2023-01-03T01:06:50.689Z,100.00
2023-01-03T01:09:23.645Z,100.00
2023-01-03T01:11:51.196Z,100.00
2023-01-03T01:14:21.047Z,100.00
2023-01-03T01:16:53.317Z,100.00
2023-01-03T01:19:21.622Z,100.00
2023-01-03T01:21:48.943Z,100.00
2023-01-03T01:24:17.926Z,100.00
2023-01-03T01:26:46.327Z,100.00
2023-01-03T01:29:14.208Z,100.00
2023-01-03T01:31:41.968Z,100.00
2023-01-03T01:34:09.186Z,100.00
2023-01-03T01:36:37.772Z,100.00
2023-01-03T01:39:08.323Z,100.00
2023-01-03T01:41:56.201Z,100.00
2023-01-03T01:44:47.313Z,100.00
2023-01-03T01:47:32.695Z,100.00
2023-01-03T01:50:29.680Z,100.00
2023-01-03T01:53:01.276Z,100.00
2023-01-03T01:55:37.255Z,100.00
2023-01-03T01:58:06.298Z,100.00
2023-01-03T02:00:33.482Z,100.00
2023-01-03T02:03:00.711Z,100.00
2023-01-03T02:05:28.542Z,100.00
2023-01-03T02:07:55.834Z,100.00
2023-01-03T02:10:58.101Z,100.00
2023-01-03T02:13:38.524Z,100.00
2023-01-03T02:16:14.238Z,100.00
2023-01-03T02:18:51.474Z,100.00
2023-01-03T02:21:37.801Z,100.00
2023-01-03T02:24:23.236Z,100.00
2023-01-03T02:26:59.106Z,100.00
2023-01-03T02:29:46.024Z,100.00
2023-01-03T02:32:36.714Z,100.00
2023-01-03T02:35:28.259Z,100.00
2023-01-03T02:38:21.853Z,100.00
2023-01-03T02:41:25.473Z,100.00
2023-01-03T02:44:11.325Z,100.00
2023-01-03T02:46:42.605Z,100.00
2023-01-03T02:49:15.882Z,100.00
2023-01-03T02:51:57.688Z,100.00
2023-01-03T02:54:47.067Z,100.00
2023-01-03T02:57:22.321Z,100.00
2023-01-03T02:59:57.743Z,100.00
2023-01-03T03:02:32.434Z,100.00
2023-01-03T03:05:02.723Z,100.00
2023-01-03T03:07:36.833Z,100.00
2023-01-03T03:10:23.275Z,100.00
2023-01-03T03:13:13.223Z,100.00
2023-01-03T03:15:52.172Z,100.00
2023-01-03T03:18:40.298Z,100.00
2023-01-03T03:21:28.940Z,100.00
2023-01-03T03:24:20.223Z,100.00
2023-01-03T03:26:49.976Z,100.00
2023-01-03T03:29:18.844Z,100.00
2023-01-03T03:31:50.800Z,100.00
2023-01-03T03:34:32.626Z,100.00
2023-01-03T03:37:20.934Z,100.00
2023-01-03T03:40:07.003Z,100.00
2023-01-03T03:43:00.976Z,100.00
2023-01-03T03:45:39.705Z,100.00
2023-01-03T03:48:14.006Z,100.00
2023-01-03T03:50:46.860Z,100.00
2023-01-03T03:53:16.205Z,100.00
2023-01-03T03:55:56.779Z,100.00
2023-01-03T03:58:39.016Z,100.00
2023-01-03T04:01:07.613Z,100.00
2023-01-03T04:03:37.165Z,100.00
2023-01-03T04:06:10.809Z,100.00
2023-01-03T04:08:37.511Z,100.00
2023-01-03T04:11:07.742Z,100.00
2023-01-03T04:13:36.415Z,100.00
2023-01-03T04:16:04.332Z,100.00
2023-01-03T04:18:31.548Z,100.00
2023-01-03T04:20:58.345Z,100.00
2023-01-03T04:23:25.354Z,100.00
2023-01-03T04:25:52.175Z,100.00
2023-01-03T04:28:19.395Z,100.00
2023-01-03T04:30:47.094Z,100.00
2023-01-03T04:33:14.285Z,100.00
2023-01-03T04:35:41.153Z,100.00
2023-01-03T04:38:09.432Z,100.00
2023-01-03T04:40:38.678Z,100.00
2023-01-03T04:43:24.053Z,100.00
2023-01-03T04:45:51.511Z,100.00
2023-01-03T04:48:18.171Z,100.00
2023-01-03T04:50:56.110Z,100.00
2023-01-03T04:53:24.684Z,100.00
2023-01-03T04:55:52.802Z,100.00
2023-01-03T04:58:20.495Z,100.00
2023-01-03T05:00:47.460Z,100.00
2023-01-03T05:03:14.641Z,100.00
2023-01-03T05:05:41.870Z,100.00
2023-01-03T05:08:10.865Z,100.00
2023-01-03T05:10:41.392Z,100.00
2023-01-03T05:13:08.851Z,100.00
2023-01-03T05:15:38.657Z,100.00
2023-01-03T05:18:05.786Z,100.00
2023-01-03T05:20:51.073Z,100.00
2023-01-03T05:23:37.260Z,100.00
2023-01-03T05:26:19.406Z,100.00
2023-01-03T05:28:49.953Z,100.00
2023-01-03T05:31:16.647Z,100.00
2023-01-03T05:33:43.417Z,100.00
2023-01-03T05:36:10.530Z,100.00
2023-01-03T05:38:38.206Z,100.00
2023-01-03T05:41:05.564Z,100.00
2023-01-03T05:43:32.230Z,100.00
2023-01-03T05:45:58.889Z,100.00
2023-01-03T05:48:25.625Z,100.00
2023-01-03T05:50:52.344Z,100.00
2023-01-03T05:53:18.999Z,100.00
2023-01-03T05:55:45.580Z,100.00
2023-01-03T05:58:13.266Z,100.00
2023-01-03T06:00:40.196Z,100.00
2023-01-03T06:03:07.776Z,100.00
2023-01-03T06:05:34.575Z,100.00
2023-01-03T06:08:02.398Z,100.00
2023-01-03T06:10:29.139Z,100.00
2023-01-03T06:12:56.161Z,100.00
2023-01-03T06:15:22.855Z,100.00
2023-01-03T06:17:57.596Z,100.00
2023-01-03T06:20:26.240Z,100.00
2023-01-03T06:22:53.624Z,100.00
2023-01-03T06:25:20.546Z,100.00
2023-01-03T06:27:47.256Z,100.00
2023-01-03T06:30:15.794Z,100.00
2023-01-03T06:32:43.333Z,100.00
2023-01-03T06:35:10.291Z,100.00
2023-01-03T06:37:36.923Z,100.00
2023-01-03T06:40:04.010Z,100.00
2023-01-03T06:42:45.338Z,100.00
2023-01-03T06:45:32.621Z,100.00
2023-01-03T06:48:22.941Z,100.00
2023-01-03T06:51:08.104Z,100.00
2023-01-03T06:53:39.689Z,100.00
2023-01-03T06:56:07.181Z,100.00
2023-01-03T06:58:34.098Z,100.00
2023-01-03T07:01:03.873Z,100.00
2023-01-03T07:03:31.903Z,100.00
2023-01-03T07:05:58.801Z,100.00
2023-01-03T07:08:25.394Z,100.00
2023-01-03T07:10:52.152Z,100.00
2023-01-03T07:13:37.341Z,100.00
2023-01-03T07:16:04.065Z,100.00
2023-01-03T07:18:31.606Z,100.00
2023-01-03T07:20:58.285Z,100.00
2023-01-03T07:23:25.004Z,100.00
2023-01-03T07:25:55.411Z,100.00
2023-01-03T07:28:22.198Z,100.00
2023-01-03T07:30:49.080Z,100.00
2023-01-03T07:33:17.083Z,100.00
2023-01-03T07:35:43.783Z,100.00
2023-01-03T07:38:12.167Z,100.00
2023-01-03T07:40:39.695Z,100.00
2023-01-03T07:43:24.908Z,100.00
2023-01-03T07:45:51.738Z,100.00
2023-01-03T07:48:18.427Z,100.00
2023-01-03T07:50:45.175Z,100.00
2023-01-03T07:53:16.798Z,100.00
2023-01-03T07:55:45.483Z,100.00
2023-01-03T07:58:12.345Z,100.00
2023-01-03T08:00:39.838Z,100.00
2023-01-03T08:03:10.879Z,100.00
2023-01-03T08:05:38.585Z,100.00
2023-01-03T08:08:06.278Z,100.00
2023-01-03T08:10:53.293Z,100.00
2023-01-03T08:13:20.148Z,100.00
2023-01-03T08:15:51.852Z,100.00
2023-01-03T08:18:26.078Z,100.00
2023-01-03T08:20:55.412Z,100.00
2023-01-03T08:23:26.356Z,100.00
2023-01-03T08:26:03.939Z,100.00
2023-01-03T08:28:31.115Z,100.00
2023-01-03T08:31:00.156Z,100.00
2023-01-03T08:33:31.272Z,100.00
2023-01-03T08:36:03.451Z,100.00
2023-01-03T08:38:43.186Z,100.00
2023-01-03T08:41:10.853Z,100.00
2023-01-03T08:43:41.442Z,100.00
2023-01-03T08:46:11.758Z,100.00
2023-01-03T08:48:38.966Z,100.00
2023-01-03T08:51:05.725Z,100.00
2023-01-03T08:53:32.470Z,100.00
2023-01-03T08:55:59.085Z,100.00
2023-01-03T08:58:25.879Z,100.00
2023-01-03T09:00:52.576Z,100.00
2023-01-03T09:03:19.575Z,100.00
2023-01-03T09:05:46.483Z,100.00
2023-01-03T09:08:13.176Z,100.00
2023-01-03T09:10:47.070Z,100.00
2023-01-03T09:13:14.463Z,100.00
2023-01-03T09:15:41.319Z,100.00
2023-01-03T09:18:08.992Z,100.00
2023-01-03T09:20:35.821Z,100.00
2023-01-03T09:23:02.501Z,100.00
2023-01-03T09:25:34.868Z,100.00
2023-01-03T09:28:03.663Z,100.00
2023-01-03T09:30:30.329Z,100.00
2023-01-03T09:32:57.453Z,100.00
2023-01-03T09:35:24.255Z,100.00
2023-01-03T09:37:51.021Z,100.00
2023-01-03T09:40:17.936Z,100.00
2023-01-03T09:43:03.541Z,100.00
2023-01-03T09:45:34.122Z,100.00
2023-01-03T09:48:03.638Z,100.00
2023-01-03T09:50:50.916Z,100.00
2023-01-03T09:53:42.203Z,100.00
2023-01-03T09:56:31.908Z,100.00
2023-01-03T09:59:20.586Z,100.00
2023-01-03T10:02:25.143Z,100.00
2023-01-03T10:05:13.165Z,100.00
2023-01-03T10:07:55.067Z,100.00
2023-01-03T10:10:46.665Z,100.00
2023-01-03T10:13:35.033Z,100.00
2023-01-03T10:16:14.640Z,100.00
2023-01-03T10:18:57.826Z,100.00
2023-01-03T10:22:01.439Z,100.00
2023-01-03T10:24:37.131Z,100.00
2023-01-03T10:27:25.299Z,100.00
2023-01-03T10:29:56.939Z,100.00
2023-01-03T10:32:57.689Z,100.00
2023-01-03T10:35:30.226Z,100.00
2023-01-03T10:37:58.097Z,100.00
2023-01-03T10:40:47.933Z,100.00
2023-01-03T10:43:31.761Z,100.00
2023-01-03T10:46:02.139Z,100.00
2023-01-03T10:49:08.369Z,100.00
2023-01-03T10:51:42.491Z,100.00
2023-01-03T10:54:26.765Z,100.00
2023-01-03T10:56:53.522Z,100.00
2023-01-03T10:59:33.332Z,100.00
2023-01-03T11:02:02.471Z,100.00
2023-01-03T11:04:31.479Z,100.00
2023-01-03T11:07:09.110Z,100.00
2023-01-03T11:09:52.303Z,100.00
2023-01-03T11:12:41.585Z,100.00
2023-01-03T11:15:17.729Z,100.00
2023-01-03T11:18:04.160Z,100.00
2023-01-03T11:20:42.229Z,100.00
2023-01-03T11:23:18.215Z,100.00
2023-01-03T11:26:02.775Z,100.00
2023-01-03T11:28:45.032Z,96.65
2023-01-03T11:31:33.815Z,97.03
2023-01-03T11:34:08.110Z,94.05
2023-01-03T11:36:52.079Z,92.14
2023-01-03T11:39:24.581Z,89.26
2023-01-03T11:42:03.774Z,88.99
2023-01-03T11:45:07.937Z,85.42
2023-01-03T11:48:06.617Z,82.76
2023-01-03T11:50:53.874Z,81.75
2023-01-03T11:53:34.872Z,80.30
2023-01-03T11:56:27.795Z,79.60
2023-01-03T11:59:14.199Z,79.48
2023-01-03T12:01:55.719Z,78.68
2023-01-03T12:04:22.408Z,79.21
2023-01-03T12:10:00.320Z,77.91
2023-01-03T12:13:10.524Z,76.26
2023-01-03T12:15:58.742Z,76.03
2023-01-03T12:18:38.084Z,74.94
2023-01-03T12:21:11.733Z,76.32
2023-01-03T12:23:48.720Z,74.87
2023-01-03T12:26:16.861Z,71.26
2023-01-03T12:28:55.891Z,67.37
2023-01-03T12:31:26.256Z,65.98
2023-01-03T12:34:20.905Z,65.16
2023-01-03T12:37:13.828Z,63.78
2023-01-03T12:39:46.295Z,61.84
2023-01-03T12:42:31.404Z,61.02
2023-01-03T12:45:18.320Z,60.68
2023-01-03T12:48:07.633Z,60.13
2023-01-03T12:50:48.503Z,59.42
2023-01-03T12:53:42.012Z,58.60
2023-01-03T12:56:25.733Z,57.97
2023-01-03T12:59:21.643Z,59.28
2023-01-03T13:01:59.255Z,58.30
2023-01-03T13:04:40.317Z,56.80
2023-01-03T13:07:15.106Z,59.29
2023-01-03T13:09:48.175Z,58.67
2023-01-03T13:12:19.064Z,62.24
2023-01-03T13:15:15.864Z,64.66
2023-01-03T13:17:49.784Z,61.18
2023-01-03T13:20:32.677Z,59.31
2023-01-03T13:23:01.163Z,59.34
2023-01-03T13:25:40.246Z,62.33
2023-01-03T13:28:31.429Z,60.51
2023-01-03T13:31:19.129Z,61.05
2023-01-03T13:33:49.044Z,59.79
2023-01-03T13:36:18.646Z,58.77
2023-01-03T13:38:46.062Z,58.66
2023-01-03T13:41:31.263Z,59.57
2023-01-03T13:44:16.026Z,57.18
2023-01-03T13:46:43.286Z,56.97
2023-01-03T13:49:19.177Z,55.43
2023-01-03T13:51:51.896Z,54.47
2023-01-03T13:54:18.792Z,55.64
2023-01-03T13:56:45.354Z,55.80
2023-01-03T13:59:15.146Z,56.23
2023-01-03T14:02:06.451Z,55.88
2023-01-03T14:04:54.764Z,56.08
2023-01-03T14:07:55.260Z,56.61
2023-01-03T14:10:59.560Z,58.19
2023-01-03T14:13:53.423Z,57.79
2023-01-03T14:16:39.871Z,58.32
2023-01-03T14:19:25.726Z,59.37
2023-01-03T14:22:28.148Z,60.79
2023-01-03T14:24:57.684Z,61.88
2023-01-03T14:27:32.298Z,62.95
2023-01-03T14:29:59.183Z,62.37
2023-01-03T14:32:34.471Z,63.50
2023-01-03T14:35:02.561Z,64.75
2023-01-03T14:37:30.349Z,65.48
2023-01-03T14:40:03.742Z,66.70
2023-01-03T14:42:30.554Z,68.45
2023-01-03T14:44:58.123Z,69.67
2023-01-03T14:47:37.905Z,71.81
2023-01-03T14:50:07.500Z,75.34
2023-01-03T14:52:37.915Z,77.43
2023-01-03T14:55:08.535Z,78.54
2023-01-03T14:57:39.631Z,81.53
2023-01-03T15:00:08.661Z,83.17
2023-01-03T15:02:40.884Z,83.28
2023-01-03T15:05:23.473Z,83.23
2023-01-03T15:07:49.983Z,83.91
2023-01-03T15:10:21.809Z,86.67
2023-01-03T15:13:00.749Z,87.24
2023-01-03T15:15:40.229Z,88.94
2023-01-03T15:18:09.666Z,89.35
2023-01-03T15:20:40.564Z,90.44
2023-01-03T15:23:08.322Z,90.87
2023-01-03T15:25:41.122Z,91.32
2023-01-03T15:28:22.476Z,91.67
2023-01-03T15:30:50.695Z,93.03
2023-01-03T15:33:24.871Z,93.84
2023-01-03T15:35:54.355Z,94.90
2023-01-03T15:38:49.000Z,97.58
2023-01-03T15:41:38.410Z,98.20
2023-01-03T15:44:06.847Z,100.00
2023-01-03T15:46:33.757Z,100.00
2023-01-03T15:49:02.514Z,100.00
2023-01-03T15:51:29.226Z,100.00
2023-01-03T15:53:55.908Z,100.00
2023-01-03T15:56:35.185Z,100.00
2023-01-03T15:59:07.091Z,100.00
2023-01-03T16:01:33.962Z,100.00
2023-01-03T16:04:01.016Z,100.00
2023-01-03T16:06:27.790Z,100.00
2023-01-03T16:08:54.423Z,100.00
2023-01-03T16:11:33.315Z,100.00
2023-01-03T16:14:03.713Z,100.00
2023-01-03T16:16:40.746Z,100.00
2023-01-03T16:19:15.009Z,100.00
2023-01-03T16:21:51.429Z,100.00
2023-01-03T16:24:28.554Z,100.00
2023-01-03T16:26:56.994Z,100.00
2023-01-03T16:29:23.728Z,100.00
2023-01-03T16:31:50.805Z,99.08
2023-01-03T16:34:20.974Z,100.00
2023-01-03T16:36:48.483Z,100.00
2023-01-03T16:39:23.171Z,100.00
2023-01-03T16:42:09.731Z,100.00
2023-01-03T16:44:37.949Z,100.00
2023-01-03T16:47:11.893Z,100.00
2023-01-03T16:49:38.865Z,100.00
2023-01-03T16:52:06.411Z,100.00
2023-01-03T16:54:34.558Z,100.00
2023-01-03T16:57:01.125Z,100.00
2023-01-03T16:59:27.833Z,100.00
2023-01-03T17:01:54.631Z,100.00
2023-01-03T17:04:21.591Z,100.00
2023-01-03T17:06:48.321Z,100.00
2023-01-03T17:09:22.735Z,100.00
2023-01-03T17:11:49.452Z,100.00
2023-01-03T17:14:21.716Z,100.00
2023-01-03T17:16:48.921Z,100.00
2023-01-03T17:19:52.205Z,100.00
2023-01-03T17:22:05.295Z,100.00
2023-01-03T17:24:32.036Z,100.00
2023-01-03T17:27:04.475Z,100.00
2023-01-03T17:29:31.734Z,100.00
2023-01-03T17:31:58.656Z,100.00
2023-01-03T17:34:26.771Z,100.00
2023-01-03T17:36:54.940Z,100.00
2023-01-03T17:39:22.530Z,100.00
2023-01-03T17:42:07.712Z,100.00
2023-01-03T17:44:34.297Z,100.00
2023-01-03T17:47:33.924Z,100.00
2023-01-03T17:50:01.234Z,100.00
2023-01-03T17:52:33.925Z,100.00
2023-01-03T17:55:00.962Z,100.00
2023-01-03T17:57:28.161Z,100.00
2023-01-03T17:59:54.896Z,100.00
2023-01-03T18:02:24.607Z,100.00
2023-01-03T18:07:38.871Z,100.00
2023-01-03T18:10:07.636Z,100.00
2023-01-03T18:12:34.494Z,100.00
2023-01-03T18:15:01.205Z,100.00
2023-01-03T18:17:31.166Z,100.00
2023-01-03T18:19:59.016Z,100.00
2023-01-03T18:22:26.189Z,100.00
2023-01-03T18:24:54.264Z,100.00
2023-01-03T18:27:22.932Z,100.00
2023-01-03T18:29:49.748Z,100.00
2023-01-03T18:32:30.295Z,100.00
2023-01-03T18:34:58.167Z,100.00
2023-01-03T18:37:30.345Z,100.00
2023-01-03T18:39:57.033Z,100.00
2023-01-03T18:42:42.133Z,100.00
2023-01-03T18:45:12.276Z,100.00
2023-01-03T18:47:39.226Z,100.00
2023-01-03T18:50:06.880Z,100.00
2023-01-03T18:52:37.831Z,100.00
2023-01-03T18:55:07.224Z,100.00
2023-01-03T18:57:34.342Z,100.00
2023-01-03T19:00:03.403Z,100.00
2023-01-03T19:02:30.633Z,100.00
2023-01-03T19:04:57.373Z,100.00
2023-01-03T19:07:32.996Z,100.00
2023-01-03T19:10:00.475Z,100.00
2023-01-03T19:12:27.592Z,100.00
2023-01-03T19:14:55.857Z,100.00
2023-01-03T19:17:23.357Z,100.00
2023-01-03T19:19:52.084Z,100.00
2023-01-03T19:22:40.210Z,100.00
2023-01-03T19:25:13.851Z,100.00
2023-01-03T19:27:45.201Z,100.00
2023-01-03T19:30:21.818Z,100.00
2023-01-03T19:32:53.139Z,100.00
2023-01-03T19:35:20.450Z,100.00
2023-01-03T19:37:47.267Z,100.00
2023-01-03T19:40:16.084Z,100.00
2023-01-03T19:42:50.950Z,100.00
2023-01-03T19:45:24.509Z,100.00
2023-01-03T19:47:51.208Z,100.00
2023-01-03T19:50:24.278Z,100.00
2023-01-03T19:52:51.889Z,100.00
2023-01-03T19:55:18.591Z,100.00
2023-01-03T19:57:48.741Z,100.00
2023-01-03T20:00:18.637Z,100.00
2023-01-03T20:02:45.848Z,100.00
2023-01-03T20:05:20.270Z,100.00
2023-01-03T20:07:47.873Z,100.00
2023-01-03T20:10:38.945Z,100.00
2023-01-03T20:13:06.123Z,100.00
2023-01-03T20:15:36.771Z,100.00
2023-01-03T20:18:03.972Z,100.00
2023-01-03T20:20:33.015Z,100.00
2023-01-03T20:23:05.629Z,100.00
2023-01-03T20:25:34.901Z,100.00
2023-01-03T20:28:01.822Z,100.00
2023-01-03T20:30:31.429Z,100.00
2023-01-03T20:32:58.533Z,100.00
2023-01-03T20:38:20.919Z,100.00
2023-01-03T20:40:47.693Z,100.00
2023-01-03T20:43:15.428Z,100.00
2023-01-03T20:45:42.158Z,100.00
2023-01-03T20:48:18.033Z,100.00
2023-01-03T20:50:50.364Z,100.00
2023-01-03T20:53:22.325Z,100.00
2023-01-03T20:55:50.036Z,100.00
2023-01-03T20:58:21.182Z,100.00
2023-01-03T21:00:48.363Z,100.00
2023-01-03T21:03:15.246Z,100.00
2023-01-03T21:05:42.287Z,100.00
2023-01-03T21:08:33.195Z,100.00
2023-01-03T21:11:00.170Z,100.00
2023-01-03T21:13:26.796Z,100.00
2023-01-03T21:15:53.621Z,100.00
2023-01-03T21:18:20.335Z,100.00
2023-01-03T21:20:47.190Z,100.00
2023-01-03T21:23:18.555Z,100.00
2023-01-03T21:25:45.715Z,100.00
2023-01-03T21:28:12.927Z,100.00
2023-01-03T21:30:40.798Z,100.00
2023-01-03T21:33:16.310Z,100.00
2023-01-03T21:35:43.169Z,100.00
2023-01-03T21:38:10.170Z,100.00
2023-01-03T21:40:37.095Z,100.00
2023-01-03T21:43:05.223Z,100.00
2023-01-03T21:45:35.297Z,100.00
2023-01-03T21:48:04.465Z,100.00
2023-01-03T21:50:32.849Z,100.00
2023-01-03T21:52:59.643Z,100.00
2023-01-03T21:55:26.604Z,100.00
2023-01-03T21:57:57.237Z,100.00
2023-01-03T22:00:24.045Z,100.00
2023-01-03T22:03:10.158Z,100.00
2023-01-03T22:05:36.833Z,100.00
2023-01-03T22:08:03.875Z,100.00
2023-01-03T22:10:31.245Z,100.00
2023-01-03T22:13:01.267Z,100.00
2023-01-03T22:15:28.300Z,100.00
2023-01-03T22:17:55.574Z,100.00
2023-01-03T22:20:24.851Z,100.00
2023-01-03T22:22:51.788Z,100.00
2023-01-03T22:25:22.538Z,100.00
2023-01-03T22:27:49.875Z,100.00
2023-01-03T22:30:19.455Z,100.00
2023-01-03T22:32:47.364Z,100.00
2023-01-03T22:35:15.525Z,100.00
2023-01-03T22:37:42.400Z,100.00
2023-01-03T22:40:13.125Z,100.00
2023-01-03T22:42:39.902Z,100.00
2023-01-03T22:45:08.123Z,100.00
2023-01-03T22:47:36.533Z,100.00
2023-01-03T22:50:04.713Z,100.00
2023-01-03T22:52:31.426Z,100.00
2023-01-03T22:54:58.268Z,100.00
2023-01-03T22:57:25.029Z,100.00
2023-01-03T22:59:51.772Z,100.00
2023-01-03T23:02:24.648Z,100.00
2023-01-03T23:04:54.974Z,100.00
2023-01-03T23:07:21.678Z,100.00
2023-01-03T23:09:48.443Z,100.00
2023-01-03T23:12:33.591Z,100.00
2023-01-03T23:15:00.244Z,100.00
2023-01-03T23:17:45.322Z,100.00
2023-01-03T23:20:12.276Z,100.00
2023-01-03T23:22:38.998Z,100.00
2023-01-03T23:25:06.029Z,100.00
2023-01-03T23:27:32.669Z,100.00
2023-01-03T23:29:59.242Z,100.00
2023-01-03T23:32:25.993Z,100.00
2023-01-03T23:34:52.597Z,100.00
2023-01-03T23:37:19.248Z,100.00
2023-01-03T23:39:45.879Z,100.00
2023-01-03T23:42:12.695Z,100.00
2023-01-03T23:44:39.353Z,100.00
2023-01-03T23:47:11.425Z,100.00
2023-01-03T23:49:39.017Z,100.00
2023-01-03T23:52:05.623Z,100.00
2023-01-03T23:54:32.553Z,100.00
2023-01-03T23:56:59.283Z,100.00
2023-01-03T23:59:25.959Z,100.00
